createdAt,value
2019-04-09T00:01:01.809Z,11.00
2019-04-09T00:03:31.788Z,10.90
2019-04-09T00:06:02.741Z,10.90
2019-04-09T00:08:33.660Z,11.00
2019-04-09T00:11:04.202Z,11.00
2019-04-09T00:13:33.968Z,11.00
2019-04-09T00:16:31.522Z,11.00
2019-04-09T00:19:01.079Z,11.10
2019-04-09T00:21:37.206Z,11.10
2019-04-09T00:24:07.195Z,11.10
2019-04-09T00:26:45.941Z,11.00
2019-04-09T00:29:08.580Z,11.10
2019-04-09T00:31:38.885Z,11.10
2019-04-09T00:34:08.605Z,11.20
2019-04-09T00:36:38.053Z,11.20
2019-04-09T00:39:08.120Z,11.20
2019-04-09T00:41:37.871Z,11.20
2019-04-09T00:44:08.079Z,11.20
2019-04-09T00:46:38.193Z,11.20
2019-04-09T00:49:07.979Z,11.10
2019-04-09T00:51:53.393Z,11.10
2019-04-09T00:54:23.312Z,11.10
2019-04-09T00:56:59.057Z,11.10
2019-04-09T00:59:24.032Z,11.00
2019-04-09T01:01:53.406Z,11.00
2019-04-09T01:04:23.859Z,10.90
2019-04-09T01:06:53.956Z,10.90
2019-04-09T01:09:23.466Z,10.80
2019-04-09T01:11:54.095Z,10.90
2019-04-09T01:14:23.984Z,10.90
2019-04-09T01:16:54.255Z,10.90
2019-04-09T01:19:24.791Z,10.90
2019-04-09T01:21:54.459Z,10.90
2019-04-09T01:24:33.415Z,10.90
2019-04-09T01:27:12.761Z,10.90
2019-04-09T01:29:52.999Z,10.90
2019-04-09T01:32:24.852Z,10.80
2019-04-09T01:35:05.538Z,10.80
2019-04-09T01:37:45.494Z,10.70
2019-04-09T01:40:35.159Z,10.70
2019-04-09T01:43:11.539Z,10.70
2019-04-09T01:45:45.915Z,10.60
2019-04-09T01:48:34.225Z,10.70
2019-04-09T01:51:08.641Z,10.70
2019-04-09T01:53:51.683Z,10.80
2019-04-09T01:56:29.036Z,10.80
2019-04-09T01:59:02.682Z,10.80
2019-04-09T02:01:39.985Z,10.60
2019-04-09T02:04:14.368Z,10.60
2019-04-09T02:06:48.500Z,10.60
2019-04-09T02:09:23.081Z,10.50
2019-04-09T02:11:57.583Z,10.50
2019-04-09T02:14:29.669Z,10.50
2019-04-09T02:17:13.415Z,10.50
2019-04-09T02:19:47.521Z,10.40
2019-04-09T02:22:34.661Z,10.30
2019-04-09T02:25:23.105Z,10.30
2019-04-09T02:27:56.967Z,10.30
2019-04-09T02:30:50.521Z,10.30
2019-04-09T02:33:40.860Z,10.30
2019-04-09T02:36:24.445Z,10.30
2019-04-09T02:39:08.310Z,10.30
2019-04-09T02:41:45.892Z,10.30
2019-04-09T02:44:19.600Z,10.30
2019-04-09T02:46:51.172Z,10.40
2019-04-09T02:49:25.140Z,10.40
2019-04-09T02:52:02.911Z,10.50
2019-04-09T02:57:41.847Z,10.50
2019-04-09T03:00:09.547Z,10.40
2019-04-09T03:02:40.283Z,10.30
2019-04-09T03:05:27.102Z,10.30
2019-04-09T03:08:00.928Z,10.20
2019-04-09T03:10:40.883Z,10.20
2019-04-09T03:13:12.184Z,10.20
2019-04-09T03:15:45.151Z,10.20
2019-04-09T03:18:31.968Z,10.20
2019-04-09T03:21:09.770Z,10.30
2019-04-09T03:23:53.835Z,10.30
2019-04-09T03:26:27.782Z,10.40
2019-04-09T03:29:14.862Z,10.50
2019-04-09T03:32:03.025Z,10.60
2019-04-09T03:34:34.879Z,10.70
2019-04-09T03:37:22.140Z,10.70
2019-04-09T03:39:56.283Z,10.70
2019-04-09T03:42:33.481Z,10.70
2019-04-09T03:45:22.724Z,10.70
2019-04-09T03:47:59.609Z,10.70
2019-04-09T03:50:30.460Z,10.70
2019-04-09T03:53:20.720Z,10.60
2019-04-09T03:56:08.439Z,10.60
2019-04-09T03:58:42.440Z,10.60
2019-04-09T04:01:14.249Z,10.50
2019-04-09T04:04:01.012Z,10.50
2019-04-09T04:06:32.306Z,10.50
2019-04-09T04:09:35.182Z,10.50
2019-04-09T04:12:23.160Z,10.40
2019-04-09T04:14:57.258Z,10.40
2019-04-09T04:20:41.751Z,10.30
2019-04-09T04:23:12.981Z,10.30
2019-04-09T04:25:53.234Z,10.20
2019-04-09T04:28:36.722Z,10.20
2019-04-09T04:31:08.979Z,10.20
2019-04-09T04:33:45.920Z,10.20
2019-04-09T04:36:16.917Z,10.20
2019-04-09T04:38:51.767Z,10.20
2019-04-09T04:41:35.040Z,10.20
2019-04-09T04:44:24.211Z,10.20
2019-04-09T04:47:13.741Z,10.30
2019-04-09T04:49:50.541Z,10.30
2019-04-09T04:52:24.301Z,10.40
2019-04-09T04:54:55.020Z,10.40
2019-04-09T04:57:39.869Z,10.50
2019-04-09T05:00:26.590Z,10.70
2019-04-09T05:03:00.461Z,10.70
2019-04-09T05:05:31.219Z,10.80
2019-04-09T05:08:21.562Z,10.90
2019-04-09T05:11:02.521Z,10.90
2019-04-09T05:13:42.976Z,11.00
2019-04-09T05:16:20.520Z,11.10
2019-04-09T05:19:06.627Z,11.10
2019-04-09T05:21:40.760Z,11.10
2019-04-09T05:24:11.820Z,11.20
2019-04-09T05:27:01.841Z,11.30
2019-04-09T05:32:36.155Z,11.40
2019-04-09T05:35:10.820Z,11.40
2019-04-09T05:37:54.233Z,11.50
2019-04-09T05:40:25.820Z,11.50
2019-04-09T05:43:09.946Z,11.70
2019-04-09T05:45:47.248Z,12.20
2019-04-09T05:48:24.163Z,12.80
2019-04-09T05:50:55.039Z,13.20
2019-04-09T05:53:44.812Z,13.50
2019-04-09T05:56:16.619Z,13.70
2019-04-09T05:58:59.986Z,14.00
2019-04-09T06:01:39.047Z,14.40
2019-04-09T06:04:13.764Z,14.70
2019-04-09T06:07:01.139Z,15.10
2019-04-09T06:09:31.221Z,15.20
2019-04-09T06:12:02.412Z,15.20
2019-04-09T06:14:32.413Z,15.40
2019-04-09T06:17:05.844Z,15.80
2019-04-09T06:19:34.400Z,16.10
2019-04-09T06:22:05.249Z,16.20
2019-04-09T06:24:34.909Z,15.80
2019-04-09T06:27:04.822Z,15.70
2019-04-09T06:29:35.481Z,15.80
2019-04-09T06:32:06.768Z,15.90
2019-04-09T06:34:38.396Z,16.00
2019-04-09T06:37:16.549Z,16.20
2019-04-09T06:40:05.719Z,16.60
2019-04-09T06:42:36.718Z,17.00
2019-04-09T06:45:09.970Z,17.30
2019-04-09T06:47:59.403Z,17.60
2019-04-09T06:50:47.365Z,17.60
2019-04-09T06:53:19.368Z,16.80
2019-04-09T06:55:59.481Z,16.00
2019-04-09T06:58:30.390Z,15.60
2019-04-09T07:01:11.025Z,15.30
2019-04-09T07:03:41.745Z,15.40
2019-04-09T07:06:12.822Z,15.40
2019-04-09T07:09:00.399Z,15.50
2019-04-09T07:11:35.112Z,15.70
2019-04-09T07:14:24.540Z,15.80
2019-04-09T07:16:58.981Z,15.80
2019-04-09T07:19:36.981Z,16.00
2019-04-09T07:22:14.878Z,16.50
2019-04-09T07:25:03.550Z,16.30
2019-04-09T07:27:34.953Z,16.00
2019-04-09T07:30:11.059Z,15.60
2019-04-09T07:32:59.140Z,15.40
2019-04-09T07:35:46.580Z,15.30
2019-04-09T07:38:34.497Z,15.20
2019-04-09T07:41:08.144Z,15.20
2019-04-09T07:43:38.863Z,15.10
2019-04-09T07:46:21.866Z,15.00
2019-04-09T07:48:52.980Z,14.90
2019-04-09T07:51:27.067Z,14.90
2019-04-09T07:54:14.101Z,14.80
2019-04-09T07:56:45.220Z,14.80
2019-04-09T07:59:32.302Z,14.80
2019-04-09T08:02:03.342Z,14.90
2019-04-09T08:04:45.710Z,15.00
2019-04-09T08:07:28.547Z,15.00
2019-04-09T08:10:11.640Z,15.10
2019-04-09T08:12:49.675Z,15.20
2019-04-09T08:15:39.660Z,15.20
2019-04-09T08:18:20.244Z,15.30
2019-04-09T08:20:59.068Z,15.40
2019-04-09T08:23:41.665Z,15.60
2019-04-09T08:26:31.898Z,15.90
2019-04-09T08:29:02.919Z,16.20
2019-04-09T08:31:37.354Z,16.50
2019-04-09T08:34:17.459Z,16.80
2019-04-09T08:36:49.909Z,17.10
2019-04-09T08:39:40.243Z,17.30
2019-04-09T08:42:15.682Z,17.50
2019-04-09T08:45:03.015Z,17.50
2019-04-09T08:48:03.377Z,17.50
2019-04-09T08:50:54.722Z,17.60
2019-04-09T08:53:34.361Z,17.70
2019-04-09T08:56:18.100Z,17.60
2019-04-09T08:59:05.121Z,17.50
2019-04-09T09:02:01.384Z,17.40
2019-04-09T09:04:48.615Z,17.20
2019-04-09T09:07:07.226Z,17.20
2019-04-09T09:09:43.668Z,17.00
2019-04-09T09:12:16.906Z,17.20
2019-04-09T09:15:04.380Z,17.40
2019-04-09T09:17:52.539Z,17.40
2019-04-09T09:20:26.519Z,17.40
2019-04-09T09:22:58.305Z,17.60
2019-04-09T09:25:35.871Z,18.00
2019-04-09T09:28:06.041Z,18.40
2019-04-09T09:30:53.735Z,18.90
2019-04-09T09:33:22.550Z,19.10
2019-04-09T09:36:10.341Z,19.00
2019-04-09T09:38:41.337Z,18.90
2019-04-09T09:41:22.079Z,19.10
2019-04-09T09:46:39.361Z,19.10
2019-04-09T09:49:06.959Z,19.00
2019-04-09T09:51:56.313Z,19.20
2019-04-09T09:54:38.339Z,19.10
2019-04-09T09:57:12.650Z,18.60
2019-04-09T09:59:43.780Z,18.10
2019-04-09T10:02:34.410Z,17.90
2019-04-09T10:05:08.685Z,17.90
2019-04-09T10:08:01.956Z,17.90
2019-04-09T10:10:45.067Z,17.50
2019-04-09T10:13:30.053Z,17.60
2019-04-09T10:19:02.683Z,18.00
2019-04-09T10:21:37.410Z,18.20
2019-04-09T10:24:30.869Z,18.30
2019-04-09T10:26:59.139Z,18.30
2019-04-09T10:29:39.047Z,18.60
2019-04-09T10:32:15.987Z,18.80
2019-04-09T10:35:05.486Z,18.90
2019-04-09T10:37:39.680Z,18.60
2019-04-09T10:40:12.404Z,18.40
2019-04-09T10:42:59.404Z,18.30
2019-04-09T10:45:39.942Z,18.30
2019-04-09T10:48:14.007Z,18.10
2019-04-09T10:50:45.482Z,18.10
2019-04-09T10:53:20.263Z,18.30
2019-04-09T10:56:09.930Z,18.30
2019-04-09T10:58:43.825Z,18.40
2019-04-09T11:01:30.862Z,18.60
2019-04-09T11:03:51.650Z,18.50
2019-04-09T11:06:31.079Z,18.30
2019-04-09T11:09:05.643Z,18.30
2019-04-09T11:11:57.347Z,18.20
2019-04-09T11:14:49.696Z,18.20
2019-04-09T11:17:27.744Z,18.20
2019-04-09T11:20:15.135Z,18.40
2019-04-09T11:22:58.145Z,18.60
2019-04-09T11:25:38.582Z,19.10
2019-04-09T11:28:14.760Z,19.40
2019-04-09T11:30:45.970Z,19.80
2019-04-09T11:33:20.471Z,19.90
2019-04-09T11:35:54.777Z,19.90
2019-04-09T11:38:41.286Z,19.40
2019-04-09T11:41:16.809Z,19.40
2019-04-09T11:43:54.276Z,19.30
2019-04-09T11:46:46.402Z,19.60
2019-04-09T11:49:36.330Z,19.70
2019-04-09T11:52:20.465Z,19.90
2019-04-09T11:54:51.919Z,20.10
2019-04-09T11:57:46.706Z,20.10
2019-04-09T12:00:30.918Z,19.80
2019-04-09T12:03:03.424Z,19.60
2019-04-09T12:05:37.504Z,19.50
2019-04-09T12:08:12.479Z,19.50
2019-04-09T12:11:02.790Z,19.40
2019-04-09T12:13:38.234Z,19.40
2019-04-09T12:16:31.235Z,19.40
2019-04-09T12:19:20.000Z,19.40
2019-04-09T12:22:03.816Z,19.50
2019-04-09T12:24:51.359Z,19.60
2019-04-09T12:27:28.572Z,19.80
2019-04-09T12:30:09.092Z,19.70
2019-04-09T12:32:56.382Z,19.50
2019-04-09T12:35:40.311Z,19.50
2019-04-09T12:38:27.166Z,19.50
2019-04-09T12:41:08.966Z,19.60
2019-04-09T12:44:33.914Z,19.70
2019-04-09T12:47:20.273Z,19.70
2019-04-09T12:49:51.820Z,19.90
2019-04-09T12:52:25.998Z,19.90
2019-04-09T12:55:08.906Z,20.00
2019-04-09T12:57:55.232Z,20.10
2019-04-09T13:00:41.010Z,20.10
2019-04-09T13:03:20.817Z,20.20
2019-04-09T13:05:52.505Z,20.20
2019-04-09T13:08:40.491Z,20.10
2019-04-09T13:11:30.766Z,20.00
2019-04-09T13:14:02.208Z,20.10
2019-04-09T13:16:39.372Z,20.20
2019-04-09T13:19:27.815Z,20.20
2019-04-09T13:22:13.788Z,20.00
2019-04-09T13:25:03.079Z,20.00
2019-04-09T13:27:34.541Z,20.00
2019-04-09T13:30:13.675Z,20.10
2019-04-09T13:32:48.788Z,20.00
2019-04-09T13:35:32.545Z,19.80
2019-04-09T13:38:14.874Z,19.80
2019-04-09T13:40:49.437Z,19.80
2019-04-09T13:43:23.679Z,19.80
2019-04-09T13:46:01.637Z,19.70
2019-04-09T13:48:36.451Z,19.70
2019-04-09T13:51:10.287Z,19.80
2019-04-09T13:53:40.735Z,19.90
2019-04-09T13:56:11.025Z,19.90
2019-04-09T13:58:40.639Z,19.90
2019-04-09T14:01:10.427Z,19.90
2019-04-09T14:03:44.187Z,19.90
2019-04-09T14:06:17.019Z,20.00
2019-04-09T14:08:47.588Z,20.10
2019-04-09T14:11:17.285Z,20.00
2019-04-09T14:13:46.568Z,20.00
2019-04-09T14:16:16.652Z,19.80
2019-04-09T14:18:46.336Z,19.70
2019-04-09T14:21:16.573Z,19.60
2019-04-09T14:23:45.850Z,19.50
2019-04-09T14:26:16.097Z,19.40
2019-04-09T14:28:46.126Z,19.30
2019-04-09T14:31:15.940Z,19.20
2019-04-09T14:33:45.824Z,19.00
2019-04-09T14:36:16.337Z,18.60
2019-04-09T14:38:53.041Z,18.10
2019-04-09T14:41:22.837Z,17.80
2019-04-09T14:43:52.263Z,17.40
2019-04-09T14:46:23.004Z,17.30
2019-04-09T14:48:55.824Z,17.20
2019-04-09T14:51:25.016Z,17.10
2019-04-09T14:54:00.413Z,17.00
2019-04-09T14:56:32.072Z,17.00
2019-04-09T14:59:02.030Z,16.90
2019-04-09T15:01:32.481Z,17.00
2019-04-09T15:04:01.823Z,16.90
2019-04-09T15:06:31.092Z,16.90
2019-04-09T15:09:00.720Z,16.90
2019-04-09T15:11:30.320Z,16.90
2019-04-09T15:14:03.667Z,16.90
2019-04-09T15:16:34.482Z,16.90
2019-04-09T15:19:04.952Z,16.90
2019-04-09T15:21:41.785Z,16.90
2019-04-09T15:24:13.068Z,16.80
2019-04-09T15:26:42.448Z,16.80
2019-04-09T15:29:12.411Z,16.80
2019-04-09T15:31:45.859Z,16.70
2019-04-09T15:34:16.433Z,16.70
2019-04-09T15:36:46.255Z,16.50
2019-04-09T15:39:17.532Z,16.40
2019-04-09T15:41:47.261Z,16.20
2019-04-09T15:44:17.607Z,16.10
2019-04-09T15:46:49.480Z,16.10
2019-04-09T15:49:19.782Z,15.90
2019-04-09T15:51:49.184Z,15.80
2019-04-09T15:54:19.265Z,15.70
2019-04-09T15:57:01.762Z,15.60
2019-04-09T15:59:32.189Z,15.60
2019-04-09T16:02:06.702Z,15.60
2019-04-09T16:04:38.024Z,15.60
2019-04-09T16:07:07.345Z,15.70
2019-04-09T16:09:37.028Z,15.80
2019-04-09T16:12:07.749Z,15.80
2019-04-09T16:14:38.836Z,15.70
2019-04-09T16:17:08.783Z,15.70
2019-04-09T16:19:39.543Z,15.60
2019-04-09T16:22:11.497Z,15.60
2019-04-09T16:24:40.910Z,15.60
2019-04-09T16:27:13.348Z,15.50
2019-04-09T16:29:42.468Z,15.50
2019-04-09T16:32:12.192Z,15.50
2019-04-09T16:34:42.149Z,15.40
2019-04-09T16:37:15.984Z,15.30
2019-04-09T16:39:42.702Z,15.20
2019-04-09T16:42:12.399Z,15.20
2019-04-09T16:44:52.635Z,15.10
2019-04-09T16:47:16.492Z,15.00
2019-04-09T16:49:49.867Z,15.00
2019-04-09T16:52:20.057Z,14.90
2019-04-09T16:54:49.816Z,14.90
2019-04-09T16:57:19.478Z,14.80
2019-04-09T16:59:48.932Z,14.80
2019-04-09T17:02:18.398Z,14.70
2019-04-09T17:04:56.175Z,14.70
2019-04-09T17:07:25.998Z,14.70
2019-04-09T17:09:56.109Z,14.70
2019-04-09T17:12:26.446Z,14.60
2019-04-09T17:14:56.059Z,14.60
2019-04-09T17:17:35.986Z,14.50
2019-04-09T17:20:08.298Z,14.40
2019-04-09T17:22:38.676Z,14.40
2019-04-09T17:25:11.809Z,14.30
2019-04-09T17:27:42.004Z,14.30
2019-04-09T17:30:11.957Z,14.20
2019-04-09T17:32:41.724Z,14.20
2019-04-09T17:35:12.148Z,14.10
2019-04-09T17:37:48.865Z,14.10
2019-04-09T17:40:19.478Z,14.10
2019-04-09T17:42:51.054Z,14.00
2019-04-09T17:45:20.587Z,14.00
2019-04-09T17:47:50.362Z,14.00
2019-04-09T17:50:26.906Z,14.00
2019-04-09T17:52:57.892Z,14.00
2019-04-09T17:55:27.888Z,14.00
2019-04-09T17:57:58.260Z,14.20
2019-04-09T18:00:28.953Z,14.20
2019-04-09T18:03:01.291Z,14.20
2019-04-09T18:05:31.683Z,14.10
2019-04-09T18:08:01.731Z,14.10
2019-04-09T18:10:31.227Z,14.00
2019-04-09T18:13:00.465Z,13.90
2019-04-09T18:15:31.604Z,13.90
2019-04-09T18:18:01.917Z,13.90
2019-04-09T18:20:32.026Z,13.90
2019-04-09T18:23:02.483Z,13.80
2019-04-09T18:25:32.283Z,13.80
2019-04-09T18:28:02.479Z,13.80
2019-04-09T18:30:34.086Z,13.80
2019-04-09T18:33:03.571Z,13.70
2019-04-09T18:35:33.845Z,13.70
2019-04-09T18:38:04.255Z,13.70
2019-04-09T18:40:33.801Z,13.70
2019-04-09T18:43:18.367Z,13.70
2019-04-09T18:45:47.711Z,13.70
2019-04-09T18:48:29.200Z,13.60
2019-04-09T18:50:51.757Z,13.60
2019-04-09T18:53:21.241Z,13.50
2019-04-09T18:55:50.897Z,13.50
2019-04-09T18:58:20.972Z,13.40
2019-04-09T19:00:51.174Z,13.40
2019-04-09T19:03:21.962Z,13.40
2019-04-09T19:05:51.467Z,13.30
2019-04-09T19:08:34.192Z,13.30
2019-04-09T19:11:07.521Z,13.20
2019-04-09T19:13:37.492Z,13.20
2019-04-09T19:16:08.225Z,13.10
2019-04-09T19:18:38.504Z,13.10
2019-04-09T19:21:08.093Z,13.10
2019-04-09T19:23:42.362Z,13.10
2019-04-09T19:26:12.408Z,13.00
2019-04-09T19:28:43.626Z,13.00
2019-04-09T19:31:14.297Z,12.90
2019-04-09T19:33:48.038Z,12.90
2019-04-09T19:36:17.641Z,12.80
2019-04-09T19:38:50.183Z,12.80
2019-04-09T19:41:19.822Z,12.70
2019-04-09T19:43:51.062Z,12.70
2019-04-09T19:46:20.582Z,12.70
2019-04-09T19:48:50.618Z,12.60
2019-04-09T19:51:21.582Z,12.50
2019-04-09T19:53:51.401Z,12.50
2019-04-09T19:56:20.780Z,12.50
2019-04-09T19:58:52.817Z,12.50
2019-04-09T20:01:22.201Z,12.40
2019-04-09T20:03:52.684Z,12.40
2019-04-09T20:06:24.120Z,12.40
2019-04-09T20:08:55.664Z,12.40
2019-04-09T20:11:25.982Z,12.40
2019-04-09T20:13:56.506Z,12.30
2019-04-09T20:16:26.822Z,12.30
2019-04-09T20:18:56.200Z,12.30
2019-04-09T20:21:26.322Z,12.30
2019-04-09T20:23:56.314Z,12.30
2019-04-09T20:26:28.564Z,12.30
2019-04-09T20:28:59.287Z,12.30
2019-04-09T20:31:51.466Z,12.30
2019-04-09T20:34:20.741Z,12.20
2019-04-09T20:36:51.359Z,12.20
2019-04-09T20:39:33.894Z,12.20
2019-04-09T20:41:52.520Z,12.20
2019-04-09T20:44:23.720Z,12.20
2019-04-09T20:46:54.030Z,12.20
2019-04-09T20:49:24.185Z,12.20
2019-04-09T20:51:54.975Z,12.30
2019-04-09T20:54:31.008Z,12.20
2019-04-09T20:57:00.324Z,12.20
2019-04-09T20:59:38.393Z,12.20
2019-04-09T21:02:18.181Z,12.10
2019-04-09T21:04:48.014Z,12.10
2019-04-09T21:07:17.928Z,12.10
2019-04-09T21:09:48.061Z,12.10
2019-04-09T21:12:17.583Z,12.00
2019-04-09T21:14:47.000Z,12.10
2019-04-09T21:17:17.441Z,12.00
2019-04-09T21:19:48.361Z,12.00
2019-04-09T21:22:18.683Z,12.00
2019-04-09T21:24:48.079Z,12.00
2019-04-09T21:27:27.978Z,12.00
2019-04-09T21:29:59.560Z,12.00
2019-04-09T21:32:30.385Z,12.00
2019-04-09T21:35:01.250Z,11.90
2019-04-09T21:37:30.899Z,11.90
2019-04-09T21:40:00.203Z,11.90
2019-04-09T21:42:29.700Z,11.90
2019-04-09T21:44:59.521Z,11.90
2019-04-09T21:47:30.201Z,11.90
2019-04-09T21:49:59.963Z,11.90
2019-04-09T21:52:29.420Z,11.90
2019-04-09T21:55:00.003Z,11.90
2019-04-09T21:57:30.199Z,11.90
2019-04-09T21:59:59.915Z,11.90
2019-04-09T22:02:29.087Z,11.90
2019-04-09T22:04:58.276Z,11.80
2019-04-09T22:07:27.562Z,11.80
2019-04-09T22:10:02.841Z,11.80
2019-04-09T22:12:32.441Z,11.80
2019-04-09T22:15:02.795Z,11.80
2019-04-09T22:17:32.261Z,11.80
2019-04-09T22:20:03.117Z,11.70
2019-04-09T22:22:32.278Z,11.70
2019-04-09T22:25:02.736Z,11.80
2019-04-09T22:27:35.427Z,11.70
2019-04-09T22:30:08.119Z,11.70
2019-04-09T22:32:38.229Z,11.70
2019-04-09T22:35:08.703Z,11.70
2019-04-09T22:37:41.004Z,11.70
2019-04-09T22:40:11.377Z,11.70
2019-04-09T22:42:42.241Z,11.70
2019-04-09T22:45:13.373Z,11.60
2019-04-09T22:47:44.757Z,11.70
2019-04-09T22:50:15.740Z,11.60
2019-04-09T22:52:50.081Z,11.70
2019-04-09T22:55:20.324Z,11.60
2019-04-09T22:57:50.649Z,11.60
2019-04-09T23:00:38.802Z,11.60
2019-04-09T23:03:11.054Z,11.60
2019-04-09T23:05:59.550Z,11.60
2019-04-09T23:08:34.242Z,11.60
2019-04-09T23:11:12.648Z,11.60
2019-04-09T23:13:43.791Z,11.50
2019-04-09T23:16:13.509Z,11.50
2019-04-09T23:18:43.432Z,11.50
2019-04-09T23:21:15.109Z,11.40
2019-04-09T23:23:45.526Z,11.40
2019-04-09T23:26:15.620Z,11.40
2019-04-09T23:28:45.524Z,11.40
2019-04-09T23:31:18.823Z,11.30
2019-04-09T23:33:48.935Z,11.30
2019-04-09T23:36:19.495Z,11.30
2019-04-09T23:38:49.689Z,11.30
2019-04-09T23:41:19.759Z,11.20
2019-04-09T23:43:50.116Z,11.30
2019-04-09T23:46:19.482Z,11.20
2019-04-09T23:48:48.740Z,11.30
2019-04-09T23:51:19.519Z,11.20
2019-04-09T23:53:49.600Z,11.30
2019-04-09T23:56:19.824Z,11.30
2019-04-09T23:58:51.408Z,11.20
